sensor_id;sensor_type;location;lat;lon;timestamp;temperature;humidity
11009;DHT22;5557;51.670;7.788;2022-12-28T00:01:29;5.80;34.60
11009;DHT22;5557;51.670;7.788;2022-12-28T00:04:02;5.80;34.40
11009;DHT22;5557;51.670;7.788;2022-12-28T00:06:29;5.80;34.30
11009;DHT22;5557;51.670;7.788;2022-12-28T00:08:58;5.80;33.20
11009;DHT22;5557;51.670;7.788;2022-12-28T00:11:27;5.80;33.20
11009;DHT22;5557;51.670;7.788;2022-12-28T00:14:00;5.90;33.30
11009;DHT22;5557;51.670;7.788;2022-12-28T00:16:32;5.90;33.70
11009;DHT22;5557;51.670;7.788;2022-12-28T00:19:02;5.90;33.30
11009;DHT22;5557;51.670;7.788;2022-12-28T00:21:29;5.90;33.90
11009;DHT22;5557;51.670;7.788;2022-12-28T00:24:00;5.80;34.60
11009;DHT22;5557;51.670;7.788;2022-12-28T00:26:29;5.80;35.50
11009;DHT22;5557;51.670;7.788;2022-12-28T00:28:57;5.80;35.60
11009;DHT22;5557;51.670;7.788;2022-12-28T00:31:32;5.80;35.90
11009;DHT22;5557;51.670;7.788;2022-12-28T00:34:01;5.80;36.30
11009;DHT22;5557;51.670;7.788;2022-12-28T00:36:29;5.80;36.40
11009;DHT22;5557;51.670;7.788;2022-12-28T00:39:18;5.80;36.80
11009;DHT22;5557;51.670;7.788;2022-12-28T00:41:45;5.80;37.40
11009;DHT22;5557;51.670;7.788;2022-12-28T00:44:12;5.80;36.80
11009;DHT22;5557;51.670;7.788;2022-12-28T00:46:39;5.90;36.40
11009;DHT22;5557;51.670;7.788;2022-12-28T00:49:06;5.90;35.50
11009;DHT22;5557;51.670;7.788;2022-12-28T00:51:33;5.90;36.20
11009;DHT22;5557;51.670;7.788;2022-12-28T00:54:00;6.00;35.90
11009;DHT22;5557;51.670;7.788;2022-12-28T00:56:27;5.90;37.60
11009;DHT22;5557;51.670;7.788;2022-12-28T00:58:55;6.00;37.00
11009;DHT22;5557;51.670;7.788;2022-12-28T01:01:25;6.00;36.50
11009;DHT22;5557;51.670;7.788;2022-12-28T01:03:57;6.10;35.20
11009;DHT22;5557;51.670;7.788;2022-12-28T01:06:25;6.20;34.10
11009;DHT22;5557;51.670;7.788;2022-12-28T01:08:52;6.30;34.30
11009;DHT22;5557;51.670;7.788;2022-12-28T01:11:24;6.30;33.90
11009;DHT22;5557;51.670;7.788;2022-12-28T01:13:53;6.30;34.70
11009;DHT22;5557;51.670;7.788;2022-12-28T01:16:23;6.40;34.60
11009;DHT22;5557;51.670;7.788;2022-12-28T01:18:52;6.40;37.40
11009;DHT22;5557;51.670;7.788;2022-12-28T01:21:22;6.40;38.90
11009;DHT22;5557;51.670;7.788;2022-12-28T01:23:54;6.30;42.20
11009;DHT22;5557;51.670;7.788;2022-12-28T01:26:22;6.40;44.00
11009;DHT22;5557;51.670;7.788;2022-12-28T01:28:49;6.30;47.40
11009;DHT22;5557;51.670;7.788;2022-12-28T01:31:18;6.30;49.90
11009;DHT22;5557;51.670;7.788;2022-12-28T01:33:46;6.20;53.30
11009;DHT22;5557;51.670;7.788;2022-12-28T01:36:19;6.20;54.20
11009;DHT22;5557;51.670;7.788;2022-12-28T01:38:47;6.10;56.20
11009;DHT22;5557;51.670;7.788;2022-12-28T01:41:18;6.10;58.60
11009;DHT22;5557;51.670;7.788;2022-12-28T01:46:39;6.10;56.30
11009;DHT22;5557;51.670;7.788;2022-12-28T01:49:21;6.10;55.30
11009;DHT22;5557;51.670;7.788;2022-12-28T01:52:52;6.10;56.60
11009;DHT22;5557;51.670;7.788;2022-12-28T01:55:04;6.20;56.00
11009;DHT22;5557;51.670;7.788;2022-12-28T01:57:43;6.20;57.30
11009;DHT22;5557;51.670;7.788;2022-12-28T02:00:14;6.10;58.60
11009;DHT22;5557;51.670;7.788;2022-12-28T02:02:54;6.10;61.30
11009;DHT22;5557;51.670;7.788;2022-12-28T02:05:25;6.10;63.90
11009;DHT22;5557;51.670;7.788;2022-12-28T02:08:03;6.10;63.50
11009;DHT22;5557;51.670;7.788;2022-12-28T02:10:32;6.10;64.20
11009;DHT22;5557;51.670;7.788;2022-12-28T02:13:12;6.10;64.90
11009;DHT22;5557;51.670;7.788;2022-12-28T02:15:40;6.10;66.10
11009;DHT22;5557;51.670;7.788;2022-12-28T02:18:07;6.10;65.80
11009;DHT22;5557;51.670;7.788;2022-12-28T02:22:00;6.10;67.30
11009;DHT22;5557;51.670;7.788;2022-12-28T02:24:32;6.10;69.00
11009;DHT22;5557;51.670;7.788;2022-12-28T02:27:58;6.10;68.20
11009;DHT22;5557;51.670;7.788;2022-12-28T02:30:15;6.10;68.20
11009;DHT22;5557;51.670;7.788;2022-12-28T02:33:05;6.10;68.60
11009;DHT22;5557;51.670;7.788;2022-12-28T02:35:48;6.10;69.80
11009;DHT22;5557;51.670;7.788;2022-12-28T02:38:30;6.20;68.30
11009;DHT22;5557;51.670;7.788;2022-12-28T02:41:06;6.20;67.00
11009;DHT22;5557;51.670;7.788;2022-12-28T02:43:35;6.30;67.50
11009;DHT22;5557;51.670;7.788;2022-12-28T02:46:21;6.30;65.70
11009;DHT22;5557;51.670;7.788;2022-12-28T03:00:12;6.50;65.00
11009;DHT22;5557;51.670;7.788;2022-12-28T03:07:51;6.60;65.10
11009;DHT22;5557;51.670;7.788;2022-12-28T03:10:46;6.50;66.70
11009;DHT22;5557;51.670;7.788;2022-12-28T03:13:25;6.60;67.90
11009;DHT22;5557;51.670;7.788;2022-12-28T03:17:04;6.60;68.50
11009;DHT22;5557;51.670;7.788;2022-12-28T03:19:39;6.70;68.80
11009;DHT22;5557;51.670;7.788;2022-12-28T03:22:29;6.70;68.80
11009;DHT22;5557;51.670;7.788;2022-12-28T03:25:20;6.70;68.80
11009;DHT22;5557;51.670;7.788;2022-12-28T03:28:08;6.80;66.40
11009;DHT22;5557;51.670;7.788;2022-12-28T03:30:57;6.80;66.10
11009;DHT22;5557;51.670;7.788;2022-12-28T03:33:51;6.90;67.20
11009;DHT22;5557;51.670;7.788;2022-12-28T03:41:54;6.90;67.60
11009;DHT22;5557;51.670;7.788;2022-12-28T03:44:42;7.00;67.70
11009;DHT22;5557;51.670;7.788;2022-12-28T03:47:12;7.00;67.40
11009;DHT22;5557;51.670;7.788;2022-12-28T03:49:41;7.00;67.10
11009;DHT22;5557;51.670;7.788;2022-12-28T03:52:09;7.10;67.10
11009;DHT22;5557;51.670;7.788;2022-12-28T03:54:37;7.00;67.60
11009;DHT22;5557;51.670;7.788;2022-12-28T03:57:05;7.10;67.10
11009;DHT22;5557;51.670;7.788;2022-12-28T03:59:32;7.10;67.50
11009;DHT22;5557;51.670;7.788;2022-12-28T04:01:59;7.10;67.50
11009;DHT22;5557;51.670;7.788;2022-12-28T04:04:26;7.10;67.50
11009;DHT22;5557;51.670;7.788;2022-12-28T04:06:53;7.10;67.20
11009;DHT22;5557;51.670;7.788;2022-12-28T04:09:20;7.20;66.90
11009;DHT22;5557;51.670;7.788;2022-12-28T04:11:48;7.20;65.80
11009;DHT22;5557;51.670;7.788;2022-12-28T04:14:14;7.30;65.50
11009;DHT22;5557;51.670;7.788;2022-12-28T04:16:41;7.30;65.10
11009;DHT22;5557;51.670;7.788;2022-12-28T04:19:08;7.30;66.70
11009;DHT22;5557;51.670;7.788;2022-12-28T04:21:38;7.30;65.70
11009;DHT22;5557;51.670;7.788;2022-12-28T04:24:05;7.30;66.50
11009;DHT22;5557;51.670;7.788;2022-12-28T04:26:32;7.30;69.30
11009;DHT22;5557;51.670;7.788;2022-12-28T04:28:59;7.20;72.10
11009;DHT22;5557;51.670;7.788;2022-12-28T04:31:28;7.20;74.30
11009;DHT22;5557;51.670;7.788;2022-12-28T04:33:58;7.10;76.30
11009;DHT22;5557;51.670;7.788;2022-12-28T04:36:25;7.10;79.50
11009;DHT22;5557;51.670;7.788;2022-12-28T04:38:52;7.10;79.40
11009;DHT22;5557;51.670;7.788;2022-12-28T04:41:19;7.10;78.40
11009;DHT22;5557;51.670;7.788;2022-12-28T04:43:46;7.10;78.40
11009;DHT22;5557;51.670;7.788;2022-12-28T04:46:15;7.10;77.80
11009;DHT22;5557;51.670;7.788;2022-12-28T04:48:42;7.20;78.60
11009;DHT22;5557;51.670;7.788;2022-12-28T04:51:23;7.20;79.10
11009;DHT22;5557;51.670;7.788;2022-12-28T04:53:51;7.20;80.80
11009;DHT22;5557;51.670;7.788;2022-12-28T04:56:20;7.20;80.40
11009;DHT22;5557;51.670;7.788;2022-12-28T04:58:48;7.20;78.70
11009;DHT22;5557;51.670;7.788;2022-12-28T05:01:19;7.30;77.40
11009;DHT22;5557;51.670;7.788;2022-12-28T05:03:48;7.30;75.30
11009;DHT22;5557;51.670;7.788;2022-12-28T05:06:23;7.40;74.30
11009;DHT22;5557;51.670;7.788;2022-12-28T05:08:51;7.40;75.80
11009;DHT22;5557;51.670;7.788;2022-12-28T05:11:26;7.40;76.70
11009;DHT22;5557;51.670;7.788;2022-12-28T05:13:53;7.40;78.80
11009;DHT22;5557;51.670;7.788;2022-12-28T05:16:23;7.30;78.00
11009;DHT22;5557;51.670;7.788;2022-12-28T05:18:50;7.40;78.90
11009;DHT22;5557;51.670;7.788;2022-12-28T05:21:22;7.40;78.90
11009;DHT22;5557;51.670;7.788;2022-12-28T05:23:50;7.40;78.80
11009;DHT22;5557;51.670;7.788;2022-12-28T05:26:18;7.40;82.50
11009;DHT22;5557;51.670;7.788;2022-12-28T05:28:46;7.40;84.90
11009;DHT22;5557;51.670;7.788;2022-12-28T05:31:18;7.40;88.00
11009;DHT22;5557;51.670;7.788;2022-12-28T05:33:46;7.30;90.10
11009;DHT22;5557;51.670;7.788;2022-12-28T05:36:19;7.30;91.10
11009;DHT22;5557;51.670;7.788;2022-12-28T05:38:46;7.30;92.40
11009;DHT22;5557;51.670;7.788;2022-12-28T05:41:16;7.30;92.60
11009;DHT22;5557;51.670;7.788;2022-12-28T05:43:44;7.30;93.40
11009;DHT22;5557;51.670;7.788;2022-12-28T05:46:18;7.30;93.90
11009;DHT22;5557;51.670;7.788;2022-12-28T05:48:46;7.30;94.00
11009;DHT22;5557;51.670;7.788;2022-12-28T05:51:16;7.40;94.00
11009;DHT22;5557;51.670;7.788;2022-12-28T05:53:43;7.30;95.00
11009;DHT22;5557;51.670;7.788;2022-12-28T05:58:44;7.40;97.00
11009;DHT22;5557;51.670;7.788;2022-12-28T06:01:18;7.30;98.90
11009;DHT22;5557;51.670;7.788;2022-12-28T06:03:46;7.20;99.90
11009;DHT22;5557;51.670;7.788;2022-12-28T06:06:16;7.20;99.90
11009;DHT22;5557;51.670;7.788;2022-12-28T06:08:44;7.20;99.90
11009;DHT22;5557;51.670;7.788;2022-12-28T06:11:15;7.20;99.90
11009;DHT22;5557;51.670;7.788;2022-12-28T06:13:42;7.30;99.90
11009;DHT22;5557;51.670;7.788;2022-12-28T06:16:19;7.30;99.90
11009;DHT22;5557;51.670;7.788;2022-12-28T06:18:47;7.30;99.90
11009;DHT22;5557;51.670;7.788;2022-12-28T06:21:23;7.30;99.90
11009;DHT22;5557;51.670;7.788;2022-12-28T06:23:50;7.30;99.90
11009;DHT22;5557;51.670;7.788;2022-12-28T06:26:19;7.30;99.90
11009;DHT22;5557;51.670;7.788;2022-12-28T06:28:47;7.30;99.90
11009;DHT22;5557;51.670;7.788;2022-12-28T06:31:22;7.20;99.90
11009;DHT22;5557;51.670;7.788;2022-12-28T06:33:51;7.20;99.90
11009;DHT22;5557;51.670;7.788;2022-12-28T06:36:31;7.20;99.90
11009;DHT22;5557;51.670;7.788;2022-12-28T06:38:59;7.20;99.90
11009;DHT22;5557;51.670;7.788;2022-12-28T06:41:28;7.10;99.90
11009;DHT22;5557;51.670;7.788;2022-12-28T06:43:56;7.10;99.90
11009;DHT22;5557;51.670;7.788;2022-12-28T06:46:26;7.10;99.90
11009;DHT22;5557;51.670;7.788;2022-12-28T06:48:54;7.00;99.90
11009;DHT22;5557;51.670;7.788;2022-12-28T06:51:29;7.00;99.90
11009;DHT22;5557;51.670;7.788;2022-12-28T06:53:57;7.00;99.90
11009;DHT22;5557;51.670;7.788;2022-12-28T06:56:29;7.00;99.90
11009;DHT22;5557;51.670;7.788;2022-12-28T06:58:59;7.00;99.90
11009;DHT22;5557;51.670;7.788;2022-12-28T07:01:32;7.00;99.90
11009;DHT22;5557;51.670;7.788;2022-12-28T07:04:01;7.00;99.90
11009;DHT22;5557;51.670;7.788;2022-12-28T07:06:29;7.00;99.90
11009;DHT22;5557;51.670;7.788;2022-12-28T07:09:05;7.10;99.90
11009;DHT22;5557;51.670;7.788;2022-12-28T07:11:33;7.10;99.90
11009;DHT22;5557;51.670;7.788;2022-12-28T07:14:00;7.00;99.90
11009;DHT22;5557;51.670;7.788;2022-12-28T07:16:28;7.00;99.90
11009;DHT22;5557;51.670;7.788;2022-12-28T07:18:58;7.00;99.90
11009;DHT22;5557;51.670;7.788;2022-12-28T07:21:30;7.00;99.90
11009;DHT22;5557;51.670;7.788;2022-12-28T07:23:58;7.00;99.90
11009;DHT22;5557;51.670;7.788;2022-12-28T07:26:27;7.00;99.90
11009;DHT22;5557;51.670;7.788;2022-12-28T07:28:56;7.00;99.90
11009;DHT22;5557;51.670;7.788;2022-12-28T07:31:33;7.00;99.90
11009;DHT22;5557;51.670;7.788;2022-12-28T07:34:07;7.00;99.90
11009;DHT22;5557;51.670;7.788;2022-12-28T07:36:34;7.00;99.90
11009;DHT22;5557;51.670;7.788;2022-12-28T07:39:01;7.00;99.90
11009;DHT22;5557;51.670;7.788;2022-12-28T07:41:30;7.00;99.90
11009;DHT22;5557;51.670;7.788;2022-12-28T07:43:59;7.10;99.90
11009;DHT22;5557;51.670;7.788;2022-12-28T07:46:28;7.10;99.90
11009;DHT22;5557;51.670;7.788;2022-12-28T07:48:56;7.00;99.90
11009;DHT22;5557;51.670;7.788;2022-12-28T07:51:33;7.10;99.90
11009;DHT22;5557;51.670;7.788;2022-12-28T07:54:01;7.10;99.90
11009;DHT22;5557;51.670;7.788;2022-12-28T07:56:29;7.10;99.90
11009;DHT22;5557;51.670;7.788;2022-12-28T07:58:59;7.10;99.90
11009;DHT22;5557;51.670;7.788;2022-12-28T08:01:28;7.10;99.90
11009;DHT22;5557;51.670;7.788;2022-12-28T08:04:03;7.10;99.90
11009;DHT22;5557;51.670;7.788;2022-12-28T08:06:33;7.10;99.90
11009;DHT22;5557;51.670;7.788;2022-12-28T08:09:01;7.10;99.90
11009;DHT22;5557;51.670;7.788;2022-12-28T08:11:31;7.10;99.90
11009;DHT22;5557;51.670;7.788;2022-12-28T08:13:59;7.10;99.90
11009;DHT22;5557;51.670;7.788;2022-12-28T08:16:31;7.10;99.90
11009;DHT22;5557;51.670;7.788;2022-12-28T08:18:58;7.10;99.90
11009;DHT22;5557;51.670;7.788;2022-12-28T08:21:28;7.10;99.90
11009;DHT22;5557;51.670;7.788;2022-12-28T08:23:56;7.10;99.90
11009;DHT22;5557;51.670;7.788;2022-12-28T08:26:26;7.20;99.90
11009;DHT22;5557;51.670;7.788;2022-12-28T08:28:56;7.20;99.90
11009;DHT22;5557;51.670;7.788;2022-12-28T08:31:26;7.20;99.90
11009;DHT22;5557;51.670;7.788;2022-12-28T08:33:57;7.20;99.90
11009;DHT22;5557;51.670;7.788;2022-12-28T08:36:24;7.20;99.90
11009;DHT22;5557;51.670;7.788;2022-12-28T08:38:51;7.20;99.90
11009;DHT22;5557;51.670;7.788;2022-12-28T08:41:21;7.20;99.90
11009;DHT22;5557;51.670;7.788;2022-12-28T08:43:48;7.20;99.90
11009;DHT22;5557;51.670;7.788;2022-12-28T08:46:20;7.20;99.90
11009;DHT22;5557;51.670;7.788;2022-12-28T08:48:50;7.20;99.90
11009;DHT22;5557;51.670;7.788;2022-12-28T08:51:19;7.20;99.90
11009;DHT22;5557;51.670;7.788;2022-12-28T08:53:46;7.20;99.90
11009;DHT22;5557;51.670;7.788;2022-12-28T08:56:16;7.30;99.90
11009;DHT22;5557;51.670;7.788;2022-12-28T08:58:44;7.30;99.90
11009;DHT22;5557;51.670;7.788;2022-12-28T09:01:13;7.30;99.90
11009;DHT22;5557;51.670;7.788;2022-12-28T09:03:42;7.30;99.90
11009;DHT22;5557;51.670;7.788;2022-12-28T09:06:12;7.30;99.90
11009;DHT22;5557;51.670;7.788;2022-12-28T09:08:40;7.30;99.90
11009;DHT22;5557;51.670;7.788;2022-12-28T09:11:11;7.30;99.90
11009;DHT22;5557;51.670;7.788;2022-12-28T09:13:39;7.30;99.90
11009;DHT22;5557;51.670;7.788;2022-12-28T09:16:09;7.40;99.90
11009;DHT22;5557;51.670;7.788;2022-12-28T09:18:37;7.40;99.90
11009;DHT22;5557;51.670;7.788;2022-12-28T09:21:12;7.40;99.90
11009;DHT22;5557;51.670;7.788;2022-12-28T09:23:40;7.40;99.90
11009;DHT22;5557;51.670;7.788;2022-12-28T09:26:09;7.40;99.90
11009;DHT22;5557;51.670;7.788;2022-12-28T09:28:38;7.40;99.90
11009;DHT22;5557;51.670;7.788;2022-12-28T09:31:07;7.50;99.90
11009;DHT22;5557;51.670;7.788;2022-12-28T09:33:35;7.50;99.90
11009;DHT22;5557;51.670;7.788;2022-12-28T09:36:42;7.50;99.90
11009;DHT22;5557;51.670;7.788;2022-12-28T09:39:14;7.50;99.90
11009;DHT22;5557;51.670;7.788;2022-12-28T09:41:48;7.60;99.90
11009;DHT22;5557;51.670;7.788;2022-12-28T09:44:37;7.60;99.90
11009;DHT22;5557;51.670;7.788;2022-12-28T09:47:34;7.60;99.90
11009;DHT22;5557;51.670;7.788;2022-12-28T09:53:26;7.70;99.90
11009;DHT22;5557;51.670;7.788;2022-12-28T09:58:43;7.70;99.90
11009;DHT22;5557;51.670;7.788;2022-12-28T10:01:15;7.70;99.90
11009;DHT22;5557;51.670;7.788;2022-12-28T10:03:44;7.70;99.90
11009;DHT22;5557;51.670;7.788;2022-12-28T10:06:13;7.80;99.90
11009;DHT22;5557;51.670;7.788;2022-12-28T10:08:48;7.70;99.90
11009;DHT22;5557;51.670;7.788;2022-12-28T10:11:24;7.80;99.90
11009;DHT22;5557;51.670;7.788;2022-12-28T10:13:57;7.80;99.90
11009;DHT22;5557;51.670;7.788;2022-12-28T10:16:26;7.80;99.90
11009;DHT22;5557;51.670;7.788;2022-12-28T10:18:54;7.80;99.90
11009;DHT22;5557;51.670;7.788;2022-12-28T10:21:22;7.80;99.90
11009;DHT22;5557;51.670;7.788;2022-12-28T10:23:59;7.80;99.90
11009;DHT22;5557;51.670;7.788;2022-12-28T10:26:47;7.90;99.90
11009;DHT22;5557;51.670;7.788;2022-12-28T10:29:23;7.90;99.90
11009;DHT22;5557;51.670;7.788;2022-12-28T10:32:02;7.90;99.90
11009;DHT22;5557;51.670;7.788;2022-12-28T10:34:32;8.00;99.90
11009;DHT22;5557;51.670;7.788;2022-12-28T10:37:14;8.00;99.90
11009;DHT22;5557;51.670;7.788;2022-12-28T10:39:57;8.00;99.90
11009;DHT22;5557;51.670;7.788;2022-12-28T10:42:48;8.10;99.90
11009;DHT22;5557;51.670;7.788;2022-12-28T10:45:19;8.20;99.90
11009;DHT22;5557;51.670;7.788;2022-12-28T10:47:52;8.20;99.90
11009;DHT22;5557;51.670;7.788;2022-12-28T10:50:49;8.30;99.90
11009;DHT22;5557;51.670;7.788;2022-12-28T10:53:47;8.30;99.90
11009;DHT22;5557;51.670;7.788;2022-12-28T10:56:30;8.40;99.90
11009;DHT22;5557;51.670;7.788;2022-12-28T10:59:30;8.50;99.90
11009;DHT22;5557;51.670;7.788;2022-12-28T11:02:36;8.60;99.90
11009;DHT22;5557;51.670;7.788;2022-12-28T11:05:03;8.70;99.90
11009;DHT22;5557;51.670;7.788;2022-12-28T11:10:24;8.80;99.90
11009;DHT22;5557;51.670;7.788;2022-12-28T11:12:56;8.80;99.90
11009;DHT22;5557;51.670;7.788;2022-12-28T11:15:27;8.90;99.90
11009;DHT22;5557;51.670;7.788;2022-12-28T11:18:12;8.90;99.90
11009;DHT22;5557;51.670;7.788;2022-12-28T11:20:51;8.90;99.90
11009;DHT22;5557;51.670;7.788;2022-12-28T11:23:20;8.90;99.90
11009;DHT22;5557;51.670;7.788;2022-12-28T11:25:48;9.00;99.90
11009;DHT22;5557;51.670;7.788;2022-12-28T11:28:20;9.00;99.90
11009;DHT22;5557;51.670;7.788;2022-12-28T11:30:49;9.00;99.90
11009;DHT22;5557;51.670;7.788;2022-12-28T11:33:42;9.00;99.90
11009;DHT22;5557;51.670;7.788;2022-12-28T11:36:24;9.00;99.90
11009;DHT22;5557;51.670;7.788;2022-12-28T11:38:54;9.00;99.90
11009;DHT22;5557;51.670;7.788;2022-12-28T11:41:41;9.00;99.90
11009;DHT22;5557;51.670;7.788;2022-12-28T11:44:49;9.00;99.90
11009;DHT22;5557;51.670;7.788;2022-12-28T11:47:27;9.00;99.90
11009;DHT22;5557;51.670;7.788;2022-12-28T11:56:12;9.10;99.90
11009;DHT22;5557;51.670;7.788;2022-12-28T12:01:47;9.10;99.90
11009;DHT22;5557;51.670;7.788;2022-12-28T12:07:20;9.20;99.30
11009;DHT22;5557;51.670;7.788;2022-12-28T12:10:26;9.20;97.70
11009;DHT22;5557;51.670;7.788;2022-12-28T12:12:55;9.30;97.30
11009;DHT22;5557;51.670;7.788;2022-12-28T12:15:31;9.30;95.90
11009;DHT22;5557;51.670;7.788;2022-12-28T12:18:02;9.30;95.80
11009;DHT22;5557;51.670;7.788;2022-12-28T12:24:01;9.40;96.90
11009;DHT22;5557;51.670;7.788;2022-12-28T12:26:38;9.40;95.10
11009;DHT22;5557;51.670;7.788;2022-12-28T12:29:20;9.40;94.10
11009;DHT22;5557;51.670;7.788;2022-12-28T12:32:25;9.50;95.70
11009;DHT22;5557;51.670;7.788;2022-12-28T12:35:04;9.50;93.30
11009;DHT22;5557;51.670;7.788;2022-12-28T12:40:40;9.50;93.30
11009;DHT22;5557;51.670;7.788;2022-12-28T12:55:55;9.50;91.90
11009;DHT22;5557;51.670;7.788;2022-12-28T13:01:42;9.50;91.20
11009;DHT22;5557;51.670;7.788;2022-12-28T13:04:20;9.50;90.40
11009;DHT22;5557;51.670;7.788;2022-12-28T13:06:56;9.50;90.00
11009;DHT22;5557;51.670;7.788;2022-12-28T13:09:27;9.60;89.70
11009;DHT22;5557;51.670;7.788;2022-12-28T13:11:56;9.60;87.90
11009;DHT22;5557;51.670;7.788;2022-12-28T13:14:24;9.60;85.80
11009;DHT22;5557;51.670;7.788;2022-12-28T13:16:53;9.60;85.10
11009;DHT22;5557;51.670;7.788;2022-12-28T13:19:26;9.60;87.30
11009;DHT22;5557;51.670;7.788;2022-12-28T13:21:54;9.50;85.30
11009;DHT22;5557;51.670;7.788;2022-12-28T13:24:29;9.60;86.80
11009;DHT22;5557;51.670;7.788;2022-12-28T13:26:58;9.60;86.70
11009;DHT22;5557;51.670;7.788;2022-12-28T13:29:27;9.50;83.80
11009;DHT22;5557;51.670;7.788;2022-12-28T13:31:57;9.50;86.60
11009;DHT22;5557;51.670;7.788;2022-12-28T13:34:27;9.50;85.30
11009;DHT22;5557;51.670;7.788;2022-12-28T13:36:59;9.50;85.20
11009;DHT22;5557;51.670;7.788;2022-12-28T13:39:28;9.50;85.30
11009;DHT22;5557;51.670;7.788;2022-12-28T13:42:04;9.50;85.90
11009;DHT22;5557;51.670;7.788;2022-12-28T13:47:32;9.40;82.40
11009;DHT22;5557;51.670;7.788;2022-12-28T13:50:06;9.40;81.60
11009;DHT22;5557;51.670;7.788;2022-12-28T13:55:11;9.40;82.70
11009;DHT22;5557;51.670;7.788;2022-12-28T13:57:39;9.30;81.70
11009;DHT22;5557;51.670;7.788;2022-12-28T14:00:18;9.30;79.50
11009;DHT22;5557;51.670;7.788;2022-12-28T14:02:47;9.30;80.40
11009;DHT22;5557;51.670;7.788;2022-12-28T14:05:19;9.30;83.30
11009;DHT22;5557;51.670;7.788;2022-12-28T14:07:48;9.20;80.20
11009;DHT22;5557;51.670;7.788;2022-12-28T14:10:16;9.30;75.70
11009;DHT22;5557;51.670;7.788;2022-12-28T14:12:44;9.30;70.30
11009;DHT22;5557;51.670;7.788;2022-12-28T14:15:13;9.30;67.20
11009;DHT22;5557;51.670;7.788;2022-12-28T14:17:41;9.30;68.10
11009;DHT22;5557;51.670;7.788;2022-12-28T14:20:09;9.30;68.20
11009;DHT22;5557;51.670;7.788;2022-12-28T14:22:38;9.30;68.30
11009;DHT22;5557;51.670;7.788;2022-12-28T14:25:11;9.30;65.20
11009;DHT22;5557;51.670;7.788;2022-12-28T14:27:57;9.30;61.30
11009;DHT22;5557;51.670;7.788;2022-12-28T14:30:38;9.30;60.40
11009;DHT22;5557;51.670;7.788;2022-12-28T14:33:33;9.30;59.60
11009;DHT22;5557;51.670;7.788;2022-12-28T14:36:04;9.30;57.60
11009;DHT22;5557;51.670;7.788;2022-12-28T14:38:44;9.20;58.30
11009;DHT22;5557;51.670;7.788;2022-12-28T14:41:21;9.20;57.90
11009;DHT22;5557;51.670;7.788;2022-12-28T14:43:52;9.20;59.00
11009;DHT22;5557;51.670;7.788;2022-12-28T14:46:37;9.10;61.10
11009;DHT22;5557;51.670;7.788;2022-12-28T14:49:31;9.10;62.00
11009;DHT22;5557;51.670;7.788;2022-12-28T14:54:55;9.10;60.40
11009;DHT22;5557;51.670;7.788;2022-12-28T14:57:42;9.10;61.10
11009;DHT22;5557;51.670;7.788;2022-12-28T15:00:35;9.10;61.80
11009;DHT22;5557;51.670;7.788;2022-12-28T15:03:18;9.10;61.10
11009;DHT22;5557;51.670;7.788;2022-12-28T15:08:17;9.10;61.90
11009;DHT22;5557;51.670;7.788;2022-12-28T15:10:50;9.10;59.20
11009;DHT22;5557;51.670;7.788;2022-12-28T15:13:19;9.10;60.40
11009;DHT22;5557;51.670;7.788;2022-12-28T15:16:01;9.10;58.30
11009;DHT22;5557;51.670;7.788;2022-12-28T15:18:30;9.20;58.80
11009;DHT22;5557;51.670;7.788;2022-12-28T15:21:02;9.10;61.10
11009;DHT22;5557;51.670;7.788;2022-12-28T15:23:30;9.20;56.30
11009;DHT22;5557;51.670;7.788;2022-12-28T15:25:57;9.20;55.70
11009;DHT22;5557;51.670;7.788;2022-12-28T15:28:24;9.20;55.00
11009;DHT22;5557;51.670;7.788;2022-12-28T15:30:51;9.20;55.80
11009;DHT22;5557;51.670;7.788;2022-12-28T15:35:50;9.10;56.80
11009;DHT22;5557;51.670;7.788;2022-12-28T15:38:17;9.20;55.70
11009;DHT22;5557;51.670;7.788;2022-12-28T15:40:44;9.10;54.10
11009;DHT22;5557;51.670;7.788;2022-12-28T15:43:13;9.10;53.30
11009;DHT22;5557;51.670;7.788;2022-12-28T15:45:40;9.10;54.20
11009;DHT22;5557;51.670;7.788;2022-12-28T15:48:07;9.00;54.40
11009;DHT22;5557;51.670;7.788;2022-12-28T15:50:34;9.00;52.40
11009;DHT22;5557;51.670;7.788;2022-12-28T15:53:01;9.10;51.30
11009;DHT22;5557;51.670;7.788;2022-12-28T15:55:28;9.10;51.30
11009;DHT22;5557;51.670;7.788;2022-12-28T15:57:57;9.10;50.70
11009;DHT22;5557;51.670;7.788;2022-12-28T16:00:24;9.10;49.00
11009;DHT22;5557;51.670;7.788;2022-12-28T16:02:51;9.10;47.40
11009;DHT22;5557;51.670;7.788;2022-12-28T16:05:18;9.10;48.20
11009;DHT22;5557;51.670;7.788;2022-12-28T16:07:45;9.10;47.50
11009;DHT22;5557;51.670;7.788;2022-12-28T16:10:12;9.10;46.30
11009;DHT22;5557;51.670;7.788;2022-12-28T16:12:39;9.20;43.90
11009;DHT22;5557;51.670;7.788;2022-12-28T16:15:07;9.20;44.30
11009;DHT22;5557;51.670;7.788;2022-12-28T16:17:34;9.20;42.20
11009;DHT22;5557;51.670;7.788;2022-12-28T16:20:15;9.20;41.80
11009;DHT22;5557;51.670;7.788;2022-12-28T16:22:43;9.20;42.20
11009;DHT22;5557;51.670;7.788;2022-12-28T16:25:10;9.20;42.60
11009;DHT22;5557;51.670;7.788;2022-12-28T16:27:38;9.20;41.00
11009;DHT22;5557;51.670;7.788;2022-12-28T16:30:06;9.30;39.80
11009;DHT22;5557;51.670;7.788;2022-12-28T16:32:33;9.30;38.50
11009;DHT22;5557;51.670;7.788;2022-12-28T16:35:01;9.30;36.10
11009;DHT22;5557;51.670;7.788;2022-12-28T16:37:28;9.30;37.00
11009;DHT22;5557;51.670;7.788;2022-12-28T16:39:55;9.30;36.80
11009;DHT22;5557;51.670;7.788;2022-12-28T16:42:22;9.30;38.80
11009;DHT22;5557;51.670;7.788;2022-12-28T16:44:49;9.30;38.80
11009;DHT22;5557;51.670;7.788;2022-12-28T16:47:16;9.30;37.50
11009;DHT22;5557;51.670;7.788;2022-12-28T16:49:43;9.20;38.40
11009;DHT22;5557;51.670;7.788;2022-12-28T16:52:10;9.20;38.60
11009;DHT22;5557;51.670;7.788;2022-12-28T16:54:37;9.20;38.40
11009;DHT22;5557;51.670;7.788;2022-12-28T16:57:06;9.30;36.10
11009;DHT22;5557;51.670;7.788;2022-12-28T16:59:32;9.30;36.10
11009;DHT22;5557;51.670;7.788;2022-12-28T17:01:59;9.30;36.10
11009;DHT22;5557;51.670;7.788;2022-12-28T17:04:27;9.30;36.10
11009;DHT22;5557;51.670;7.788;2022-12-28T17:06:54;9.40;34.90
11009;DHT22;5557;51.670;7.788;2022-12-28T17:09:21;9.50;34.10
11009;DHT22;5557;51.670;7.788;2022-12-28T17:11:49;9.50;32.40
11009;DHT22;5557;51.670;7.788;2022-12-28T17:14:16;9.60;30.20
11009;DHT22;5557;51.670;7.788;2022-12-28T17:17:02;9.50;30.90
11009;DHT22;5557;51.670;7.788;2022-12-28T17:19:29;9.50;31.00
11009;DHT22;5557;51.670;7.788;2022-12-28T17:21:56;9.50;31.00
11009;DHT22;5557;51.670;7.788;2022-12-28T17:24:23;9.60;31.80
11009;DHT22;5557;51.670;7.788;2022-12-28T17:26:50;9.60;29.60
11009;DHT22;5557;51.670;7.788;2022-12-28T17:29:18;9.60;27.30
11009;DHT22;5557;51.670;7.788;2022-12-28T17:31:45;9.70;26.90
11009;DHT22;5557;51.670;7.788;2022-12-28T17:34:12;9.70;27.70
11009;DHT22;5557;51.670;7.788;2022-12-28T17:36:39;9.70;28.30
11009;DHT22;5557;51.670;7.788;2022-12-28T17:39:07;9.60;27.00
11009;DHT22;5557;51.670;7.788;2022-12-28T17:41:33;9.70;28.20
11009;DHT22;5557;51.670;7.788;2022-12-28T17:44:01;9.60;29.70
11009;DHT22;5557;51.670;7.788;2022-12-28T17:46:29;9.60;30.00
11009;DHT22;5557;51.670;7.788;2022-12-28T17:48:58;9.60;30.20
11009;DHT22;5557;51.670;7.788;2022-12-28T17:51:26;9.60;31.80
11009;DHT22;5557;51.670;7.788;2022-12-28T17:53:55;9.50;32.50
11009;DHT22;5557;51.670;7.788;2022-12-28T17:56:22;9.50;34.80
11009;DHT22;5557;51.670;7.788;2022-12-28T17:58:53;9.40;37.30
11009;DHT22;5557;51.670;7.788;2022-12-28T18:01:21;9.40;37.60